Time,TemperatureF,DewpointF,PressureIn,WindDirection,WindDirectionDegrees,WindSpeedMPH,WindSpeedGustMPH,Humidity,HourlyPrecipIn,Conditions,Clouds,dailyrainin,SoftwareType,DateUTC
2013-06-17 00:02:00,66.0,58.0,-100.00,South,170,1.0,4.0,75,-99.99,,,-99.99,,2013-06-17 05:02:00,
2013-06-17 00:33:00,61.0,59.0,-100.00,South,170,0.0,2.0,93,-99.99,,,-99.99,,2013-06-17 05:33:00,
2013-06-17 00:44:00,61.0,59.0,-100.00,South,170,0.0,2.0,93,-99.99,,,-99.99,,2013-06-17 05:44:00,
2013-06-17 00:53:00,61.0,59.0,-100.00,South,170,0.0,2.0,93,-99.99,,,-99.99,,2013-06-17 05:53:00,
2013-06-17 01:02:00,61.0,59.0,-100.00,South,170,0.0,2.0,93,-99.99,,,-99.99,,2013-06-17 06:02:00,
2013-06-17 01:33:00,64.0,58.0,-100.00,South,170,0.0,2.0,80,-99.99,,,-99.99,,2013-06-17 06:33:00,
2013-06-17 01:43:00,64.0,58.0,-100.00,South,170,0.0,2.0,80,-99.99,,,-99.99,,2013-06-17 06:43:00,
2013-06-17 01:53:00,64.0,58.0,-100.00,South,170,0.0,2.0,80,-99.99,,,-99.99,,2013-06-17 06:53:00,
2013-06-17 02:02:00,64.0,58.0,-100.00,South,170,0.0,2.0,80,-99.99,,,-99.99,,2013-06-17 07:02:00,
2013-06-17 02:33:00,64.0,57.0,-100.00,South,170,1.0,4.0,77,-99.99,,,-99.99,,2013-06-17 07:33:00,
2013-06-17 02:43:00,64.0,57.0,-100.00,South,170,1.0,4.0,77,-99.99,,,-99.99,,2013-06-17 07:43:00,
2013-06-17 02:53:00,64.0,57.0,-100.00,South,170,1.0,4.0,77,-99.99,,,-99.99,,2013-06-17 07:53:00,
2013-06-17 03:02:00,64.0,57.0,-100.00,South,170,1.0,4.0,77,-99.99,,,-99.99,,2013-06-17 08:02:00,
2013-06-17 03:34:00,66.0,56.0,-100.00,South,170,1.0,3.0,70,-99.99,,,-99.99,,2013-06-17 08:34:00,
2013-06-17 03:43:00,66.0,56.0,-100.00,South,170,1.0,3.0,70,-99.99,,,-99.99,,2013-06-17 08:43:00,
2013-06-17 03:53:00,66.0,56.0,-100.00,South,170,1.0,3.0,70,-99.99,,,-99.99,,2013-06-17 08:53:00,
2013-06-17 04:02:00,66.0,56.0,-100.00,South,170,1.0,3.0,70,-99.99,,,-99.99,,2013-06-17 09:02:00,
2013-06-17 04:34:00,67.0,56.0,-100.00,South,170,0.0,4.0,69,-99.99,,,-99.99,,2013-06-17 09:34:00,
2013-06-17 04:44:00,67.0,56.0,-100.00,South,170,0.0,4.0,69,-99.99,,,-99.99,,2013-06-17 09:44:00,
2013-06-17 04:53:00,67.0,56.0,-100.00,South,170,0.0,4.0,69,-99.99,,,-99.99,,2013-06-17 09:53:00,
2013-06-17 05:02:00,67.0,56.0,-100.00,South,170,0.0,4.0,69,-99.99,,,-99.99,,2013-06-17 10:02:00,
2013-06-17 05:33:00,61.0,58.0,-100.00,South,170,0.0,1.0,88,-99.99,,,-99.99,,2013-06-17 10:33:00,
2013-06-17 05:43:00,61.0,58.0,-100.00,South,170,0.0,1.0,88,-99.99,,,-99.99,,2013-06-17 10:43:00,
2013-06-17 05:54:00,61.0,58.0,-100.00,South,170,0.0,1.0,88,-99.99,,,-99.99,,2013-06-17 10:54:00,
2013-06-17 06:02:00,61.0,58.0,-100.00,South,170,0.0,1.0,88,-99.99,,,-99.99,,2013-06-17 11:02:00,
2013-06-17 06:33:00,62.0,60.0,-100.00,South,170,1.0,2.0,92,-99.99,,,-99.99,,2013-06-17 11:33:00,
2013-06-17 06:43:00,62.0,60.0,-100.00,South,170,1.0,2.0,92,-99.99,,,-99.99,,2013-06-17 11:43:00,
2013-06-17 06:53:00,62.0,60.0,-100.00,South,170,1.0,2.0,92,-99.99,,,-99.99,,2013-06-17 11:53:00,
2013-06-17 07:02:00,62.0,60.0,-100.00,South,170,1.0,2.0,92,-99.99,,,-99.99,,2013-06-17 12:02:00,
2013-06-17 07:33:00,69.0,60.0,-100.00,South,170,0.0,3.0,71,-99.99,,,-99.99,,2013-06-17 12:33:00,
2013-06-17 08:01:00,69.0,60.0,-100.00,South,170,0.0,3.0,71,-99.99,,,-99.99,,2013-06-17 13:01:00,
2013-06-17 08:33:00,72.0,60.0,-100.00,South,170,4.0,9.0,64,-99.99,,,-99.99,,2013-06-17 13:33:00,
2013-06-17 08:43:00,72.0,60.0,-100.00,South,170,4.0,9.0,64,-99.99,,,-99.99,,2013-06-17 13:43:00,
2013-06-17 08:53:00,72.0,60.0,-100.00,South,170,4.0,9.0,64,-99.99,,,-99.99,,2013-06-17 13:53:00,
2013-06-17 09:02:00,72.0,60.0,-100.00,South,170,4.0,9.0,64,-99.99,,,-99.99,,2013-06-17 14:02:00,
2013-06-17 09:34:00,74.0,62.0,-100.00,South,170,4.0,7.0,65,-99.99,,,-99.99,,2013-06-17 14:34:00,
2013-06-17 09:44:00,74.0,62.0,-100.00,South,170,4.0,7.0,65,-99.99,,,-99.99,,2013-06-17 14:44:00,
2013-06-17 09:53:00,74.0,62.0,-100.00,South,170,4.0,7.0,65,-99.99,,,-99.99,,2013-06-17 14:53:00,
2013-06-17 10:02:00,74.0,62.0,-100.00,South,170,4.0,7.0,65,-99.99,,,-99.99,,2013-06-17 15:02:00,
2013-06-17 10:33:00,75.0,62.0,-100.00,South,170,4.0,6.0,64,-99.99,,,-99.99,,2013-06-17 15:33:00,
2013-06-17 10:43:00,75.0,62.0,-100.00,South,170,4.0,6.0,64,-99.99,,,-99.99,,2013-06-17 15:43:00,
2013-06-17 12:33:00,81.0,57.0,-100.00,South,170,9.0,17.0,44,-99.99,,,-99.99,,2013-06-17 17:33:00,
2013-06-17 12:43:00,81.0,57.0,-100.00,South,170,9.0,17.0,44,-99.99,,,-99.99,,2013-06-17 17:43:00,
2013-06-17 12:52:00,81.0,57.0,-100.00,South,170,9.0,17.0,44,-99.99,,,-99.99,,2013-06-17 17:52:00,
2013-06-17 13:02:00,81.0,57.0,-100.00,South,170,9.0,17.0,44,-99.99,,,-99.99,,2013-06-17 18:02:00,
2013-06-17 14:33:00,81.0,55.0,-100.00,SSE,160,11.0,24.0,41,-99.99,,,-99.99,,2013-06-17 19:33:00,
2013-06-17 14:43:00,81.0,55.0,-100.00,SSE,160,11.0,24.0,41,-99.99,,,-99.99,,2013-06-17 19:43:00,
2013-06-17 14:54:00,81.0,55.0,-100.00,SSE,160,11.0,24.0,41,-99.99,,,-99.99,,2013-06-17 19:54:00,
2013-06-17 15:02:00,81.0,55.0,-100.00,SSE,160,11.0,24.0,41,-99.99,,,-99.99,,2013-06-17 20:02:00,
2013-06-17 16:43:00,81.0,55.0,-100.00,SE,135,7.0,17.0,42,-99.99,,,-99.99,,2013-06-17 21:43:00,
2013-06-17 16:52:00,81.0,55.0,-100.00,SE,135,7.0,17.0,42,-99.99,,,-99.99,,2013-06-17 21:52:00,
2013-06-17 17:01:00,81.0,55.0,-100.00,SE,135,7.0,17.0,42,-99.99,,,-99.99,,2013-06-17 22:01:00,
2013-06-17 17:34:00,81.0,56.0,-100.00,SE,130,9.0,14.0,42,-99.99,,,-99.99,,2013-06-17 22:34:00,
2013-06-17 17:43:00,81.0,56.0,-100.00,SE,130,9.0,14.0,42,-99.99,,,-99.99,,2013-06-17 22:43:00,
2013-06-17 17:53:00,81.0,56.0,-100.00,SE,130,9.0,14.0,42,-99.99,,,-99.99,,2013-06-17 22:53:00,
2013-06-17 18:02:00,81.0,56.0,-100.00,SE,130,9.0,14.0,42,-99.99,,,-99.99,,2013-06-17 23:02:00,
2013-06-17 18:33:00,79.0,56.0,-100.00,SE,130,9.0,20.0,46,-99.99,,,-99.99,,2013-06-17 23:33:00,
2013-06-17 18:43:00,79.0,56.0,-100.00,SE,130,9.0,20.0,46,-99.99,,,-99.99,,2013-06-17 23:43:00,
2013-06-17 18:53:00,79.0,56.0,-100.00,SE,130,9.0,20.0,46,-99.99,,,-99.99,,2013-06-17 23:53:00,
2013-06-17 19:01:00,79.0,56.0,-100.00,SE,130,9.0,20.0,46,-99.99,,,-99.99,,2013-06-18 00:01:00,
2013-06-17 19:33:00,74.0,58.0,-100.00,SE,130,2.0,8.0,58,-99.99,,,-99.99,,2013-06-18 00:33:00,
2013-06-17 19:43:00,74.0,58.0,-100.00,SE,130,2.0,8.0,58,-99.99,,,-99.99,,2013-06-18 00:43:00,
2013-06-17 19:52:00,74.0,58.0,-100.00,SE,130,2.0,8.0,58,-99.99,,,-99.99,,2013-06-18 00:52:00,
2013-06-17 20:01:00,74.0,58.0,-100.00,SE,130,2.0,8.0,58,-99.99,,,-99.99,,2013-06-18 01:01:00,
2013-06-17 20:34:00,72.0,61.0,-100.00,SE,130,2.0,6.0,67,-99.99,,,-99.99,,2013-06-18 01:34:00,
2013-06-17 20:44:00,72.0,61.0,-100.00,SE,130,2.0,6.0,67,-99.99,,,-99.99,,2013-06-18 01:44:00,
2013-06-17 20:53:00,72.0,61.0,-100.00,SE,130,2.0,6.0,67,-99.99,,,-99.99,,2013-06-18 01:53:00,
2013-06-17 21:02:00,72.0,61.0,-100.00,SE,130,2.0,6.0,67,-99.99,,,-99.99,,2013-06-18 02:02:00,
2013-06-17 21:34:00,68.0,62.0,-100.00,SE,130,2.0,4.0,80,-99.99,,,-99.99,,2013-06-18 02:34:00,
2013-06-17 21:43:00,68.0,62.0,-100.00,SE,130,2.0,4.0,80,-99.99,,,-99.99,,2013-06-18 02:43:00,
2013-06-17 21:53:00,68.0,62.0,-100.00,SE,130,2.0,4.0,80,-99.99,,,-99.99,,2013-06-18 02:53:00,
2013-06-17 22:02:00,68.0,62.0,-100.00,SE,130,2.0,4.0,80,-99.99,,,-99.99,,2013-06-18 03:02:00,
2013-06-17 22:34:00,66.0,62.0,-100.00,SE,130,3.0,6.0,87,-99.99,,,-99.99,,2013-06-18 03:34:00,
2013-06-17 22:43:00,66.0,62.0,-100.00,SE,130,3.0,6.0,87,-99.99,,,-99.99,,2013-06-18 03:43:00,
2013-06-17 22:53:00,66.0,62.0,-100.00,SE,130,3.0,6.0,87,-99.99,,,-99.99,,2013-06-18 03:53:00,
2013-06-17 23:02:00,66.0,62.0,-100.00,SE,130,3.0,6.0,87,-99.99,,,-99.99,,2013-06-18 04:02:00,
2013-06-17 23:34:00,65.0,63.0,-100.00,SE,130,5.0,11.0,94,-99.99,,,-99.99,,2013-06-18 04:34:00,
2013-06-17 23:43:00,65.0,63.0,-100.00,SE,130,5.0,11.0,94,-99.99,,,-99.99,,2013-06-18 04:43:00,
2013-06-17 23:54:00,65.0,63.0,-100.00,SE,130,5.0,11.0,94,-99.99,,,-99.99,,2013-06-18 04:54:00,